Latest Weather Observations for Nowra

IDN60901

Issued at 4:45 am EST Wednesday 3 September 2014 (issued every 10 minutes, with the page automatically refreshed every 10 minutes)

About weather observations | Map of Canberra area stations | Latest observations for Canberra area | Other Formats
Station Details ID: 068072 Name: NOWRA RAN AIR STATION AWS Lat: -34.95 Lon: 150.54 Height: 109.0 m
Data from the previous 72 hours. | See also: Recent months at Nowra
Date/Time
EST
Tmp

°C
App
Tmp
°C
Dew
Point
°C
Rel
Hum
%
Delta-T

°C
Wind Press
QNH
hPa
Press
MSL
hPa
Rain
since
9 am
mm
Dir
 
Spd
km/h
Gust
km/h
Spd
kts
Gust
kts
03/04:30am 10.2 2.2 1.6 55 3.6 SSW 33 44 18 24 1012.9 - 10.2
03/04:02am 10.1 2.3 1.5 55 3.6 SW 32 50 17 27 1012.3 - 10.2
03/04:00am 10.4 2.4 1.5 54 3.7 SW 33 50 18 27 1012.3 - 10.2
03/03:32am 10.1 2.6 1.5 55 3.6 SSW 30 50 16 27 1012.1 - 10.2
03/03:30am 10.1 3.0 1.2 54 3.7 SSW 28 41 15 22 1012.0 - 10.2
03/03:00am 10.2 3.2 1.8 56 3.5 SSW 28 43 15 23 1012.0 1012.0 10.2
03/02:30am 10.5 1.4 2.1 56 3.6 SSW 39 63 21 34 1012.4 - 10.2
03/02:16am 10.5 2.6 2.1 56 3.6 SSW 33 52 18 28 1012.4 - 10.2
03/02:00am 10.6 2.7 2.2 56 3.6 SSW 33 50 18 27 1012.3 - 10.2
03/01:37am 10.6 2.7 2.4 57 3.5 SSW 33 52 18 28 1012.5 - 10.2
03/01:30am 10.7 3.3 2.0 55 3.7 SSW 30 44 16 24 1012.5 - 10.2
03/01:10am 10.6 2.9 2.4 57 3.5 SSW 32 50 17 27 1012.6 - 10.2
03/01:00am 10.5 2.3 2.6 58 3.4 SSW 35 48 19 26 1012.4 - 10.2
03/12:34am 10.6 2.1 2.9 59 3.3 SSW 37 56 20 30 1012.2 - 10.2
03/12:30am 10.6 1.7 2.9 59 3.3 SSW 39 56 21 30 1012.0 - 10.2
03/12:09am 10.5 2.4 3.3 61 3.2 SSW 35 56 19 30 1012.0 - 10.2
03/12:00am 10.2 2.2 3.7 64 2.9 SW 35 52 19 28 1012.1 1012.1 10.2
 
Date/Time
EST
Tmp

°C
App
Tmp
°C
Dew
Point
°C
Rel
Hum
%
Delta-T

°C
Wind Press
QNH
hPa
Press
MSL
hPa
Rain
since
9 am
mm
Dir
 
Spd
km/h
Gust
km/h
Spd
kts
Gust
kts
02/11:42pm 10.0 2.6 4.2 67 2.6 SSW 32 50 17 27 1012.2 - 10.2
02/11:30pm 10.3 2.3 3.8 64 2.9 SSW 35 48 19 26 1012.2 - 10.2
02/11:10pm 10.3 2.3 4.0 65 2.8 SSW 35 56 19 30 1012.2 - 10.2
02/11:00pm 10.3 2.7 4.0 65 2.8 SSW 33 50 18 27 1012.3 - 10.2
02/10:30pm 10.1 2.6 4.3 67 2.6 SW 33 52 18 28 1012.1 - 10.2
02/10:28pm 10.2 2.6 3.9 65 2.8 SW 33 52 18 28 1012.2 - 10.2
02/10:22pm 10.4 2.4 3.9 64 2.9 SW 35 52 19 28 1012.2 - 10.2
02/10:00pm 9.7 4.0 4.7 71 2.2 SW 24 32 13 17 1012.4 - 10.2
02/09:30pm 9.2 2.1 5.6 78 1.6 SW 32 50 17 27 1012.5 - 10.2
02/09:23pm 9.1 2.9 6.0 81 1.4 SW 28 50 15 27 1012.5 - 10.2
02/09:00pm 8.9 2.4 6.3 84 1.2 SW 30 41 16 22 1012.7 1012.7 10.0
02/08:40pm 9.0 2.0 6.1 82 1.3 SW 32 50 17 27 1012.5 - 9.4
02/08:30pm 8.9 2.4 6.3 84 1.2 SW 30 46 16 25 1012.4 - 9.4
02/08:27pm 8.9 2.8 6.5 85 1.1 SW 28 46 15 25 1012.5 - 9.4
02/08:00pm 7.6 3.2 6.5 93 0.5 W 19 22 10 12 1012.6 - 8.8
02/07:51pm 7.6 2.6 6.5 93 0.5 W 22 28 12 15 1012.6 - 8.4
02/07:35pm 8.0 2.6 6.5 90 0.7 WSW 24 35 13 19 1012.4 - 7.4
02/07:30pm 7.9 3.3 6.5 91 0.6 W 20 26 11 14 1012.3 - 7.0
02/07:00pm 8.5 2.6 6.0 84 1.1 WSW 26 37 14 20 1012.0 - 5.2
02/06:30pm 9.2 4.8 6.5 83 1.3 WSW 19 39 10 21 1011.6 - 4.2
02/06:00pm 9.3 5.4 6.9 85 1.1 SW 17 22 9 12 1011.1 1011.1 4.0
02/05:30pm 10.3 5.0 6.6 78 1.7 SSW 24 37 13 20 1010.6 - 3.6
02/05:00pm 11.7 7.0 7.8 77 1.9 SSW 22 32 12 17 1009.6 - 3.6
02/04:30pm 11.9 8.4 8.9 82 1.5 SSW 17 24 9 13 1008.9 - 3.6
02/04:00pm 10.8 7.0 8.9 88 0.9 SSW 19 24 10 13 1008.7 - 3.6
02/03:44pm 10.7 5.0 8.3 85 1.2 SSW 28 35 15 19 1008.8 - 3.0
02/03:30pm 11.8 9.8 8.8 82 1.5 WSW 9 13 5 7 1008.3 - 1.6
02/03:00pm 11.6 8.3 8.1 79 1.7 W 15 19 8 10 1008.2 1008.1 1.4
02/02:47pm 12.3 6.0 7.2 71 2.5 SSW 30 41 16 22 1008.3 - 1.2
02/02:30pm 15.2 12.1 5.4 52 4.7 S 11 17 6 9 1007.7 - 0.8
02/02:00pm 15.1 12.2 4.5 49 5.0 S 9 13 5 7 1007.8 - 0.8
02/01:30pm 14.8 10.0 4.5 50 4.8 SW 19 24 10 13 1008.1 - 0.8
02/01:00pm 14.6 8.9 5.1 53 4.5 SW 24 30 13 16 1008.3 - 0.8
02/12:30pm 13.2 10.6 9.5 78 1.9 W 13 17 7 9 1008.6 - 0.8
02/12:00pm 12.3 9.7 9.3 82 1.5 W 13 17 7 9 1009.0 1009.0 0.8
02/11:30am 12.1 9.1 7.8 75 2.1 WSW 13 17 7 9 1009.5 - 0.2
02/11:00am 13.1 7.7 6.5 64 3.2 SSW 24 35 13 19 1009.6 - 0.0
02/10:30am 12.7 7.4 7.0 68 2.8 S 24 35 13 19 1009.5 - 0.0
02/10:00am 13.0 9.5 7.0 67 2.9 SSE 15 20 8 11 1009.7 - 0.0
02/09:33am 13.3 9.1 5.9 61 3.5 W 17 24 9 13 1009.3 - 0.0
02/09:00am 13.2 8.5 5.9 61 3.5 W 20 30 11 16 1009.8 1009.8 0.0
02/08:30am 13.1 8.4 6.0 62 3.4 W 20 28 11 15 1009.6 - 0.0
02/08:00am 12.9 9.1 5.8 62 3.4 WNW 15 17 8 9 1009.4 - 0.0
02/07:30am 12.8 9.0 5.9 63 3.3 W 15 20 8 11 1009.3 - 0.0
02/07:00am 13.1 9.3 5.8 61 3.5 WNW 15 22 8 12 1008.5 - 0.0
02/06:30am 13.4 8.6 5.6 59 3.7 WNW 20 30 11 16 1007.6 - 0.0
02/06:00am 13.6 9.4 5.7 59 3.8 NW 17 24 9 13 1007.6 1007.5 0.0
02/05:30am 13.6 9.8 5.7 59 3.7 NW 15 22 8 12 1007.8 - 0.0
02/05:00am 13.5 10.1 5.9 60 3.6 NW 13 17 7 9 1007.8 - 0.0
02/04:30am 13.8 10.4 5.7 58 3.8 NW 13 20 7 11 1007.9 - 0.0
02/04:00am 14.0 10.6 5.9 58 3.9 NW 13 20 7 11 1008.4 - 0.0
02/03:30am 14.3 10.9 5.9 57 4.0 NW 13 20 7 11 1008.8 - 0.0
02/03:00am 14.7 10.1 5.8 55 4.3 WNW 19 26 10 14 1008.9 1008.9 0.0
02/02:30am 15.2 10.6 5.7 53 4.6 WNW 19 24 10 13 1009.2 - 0.0
02/02:00am 15.9 10.3 5.5 50 5.0 WNW 24 35 13 19 1009.3 - 0.0
02/01:30am 17.0 12.6 5.0 45 5.8 WNW 17 26 9 14 1009.0 - 0.0
02/01:00am 16.0 12.6 5.9 51 4.9 W 13 19 7 10 1008.6 - 0.0
02/12:30am 14.0 10.9 7.3 64 3.3 WSW 13 17 7 9 1008.5 - 0.0
02/12:00am 13.2 12.9 8.7 74 2.3 CALM 0 0 0 0 1008.6 1008.6 0.0
 
Date/Time
EST
Tmp

°C
App
Tmp
°C
Dew
Point
°C
Rel
Hum
%
Delta-T

°C
Wind Press
QNH
hPa
Press
MSL
hPa
Rain
since
9 am
mm
Dir
 
Spd
km/h
Gust
km/h
Spd
kts
Gust
kts
01/11:30pm 13.2 13.1 9.5 78 1.9 CALM 0 0 0 0 1008.9 - 0.0
01/11:00pm 13.7 13.5 9.2 74 2.3 CALM 0 0 0 0 1009.3 - 0.0
01/10:30pm 13.2 13.0 9.1 76 2.1 CALM 0 0 0 0 1009.5 - 0.0
01/10:00pm 13.5 13.2 8.8 73 2.4 CALM 0 0 0 0 1009.6 - 0.0
01/09:30pm 13.6 13.3 8.7 72 2.5 CALM 0 0 0 0 1009.8 - 0.0
01/09:00pm 13.1 12.7 8.4 73 2.4 CALM 0 0 0 0 1009.9 1009.9 0.0
01/08:30pm 15.7 13.6 5.9 52 4.7 N 6 7 3 4 1010.1 - 0.0
01/08:00pm 17.6 14.7 4.9 43 6.1 NNW 9 15 5 8 1010.4 - 0.0
01/07:30pm 16.8 13.4 6.0 49 5.3 N 13 15 7 8 1010.4 - 0.0
01/07:00pm 16.6 13.6 5.9 49 5.2 N 11 13 6 7 1010.4 - 0.0
01/06:30pm 18.2 14.8 4.0 39 6.7 NNW 11 15 6 8 1010.3 - 0.0
01/06:00pm 18.5 15.4 3.6 37 7.0 NNW 9 13 5 7 1010.2 1010.2 0.0
01/05:30pm 19.5 15.5 2.8 33 7.8 NW 13 20 7 11 1010.1 - 0.0
01/05:00pm 19.9 15.2 3.2 33 7.9 WNW 17 26 9 14 1010.1 - 0.0
01/04:30pm 20.4 13.8 2.3 30 8.4 WNW 26 35 14 19 1009.9 - 0.0
01/04:00pm 20.9 14.9 3.2 31 8.4 NW 24 35 13 19 1009.8 - 0.0
01/03:30pm 21.3 16.3 4.4 33 8.3 WNW 20 35 11 19 1009.7 - 0.0
01/03:00pm 21.9 15.3 4.0 31 8.7 NW 28 35 15 19 1009.6 1009.6 0.0
01/02:30pm 22.1 16.7 4.6 32 8.6 NW 22 30 12 16 1010.1 - 0.0
01/02:00pm 21.8 16.7 3.9 31 8.7 WNW 20 33 11 18 1010.3 - 0.0
01/01:30pm 22.7 17.7 4.7 31 8.9 NNW 20 26 11 14 1010.6 - 0.0
01/01:00pm 22.8 15.2 2.8 27 9.6 W 32 43 17 23 1011.1 - 0.0
01/12:30pm 22.3 18.1 5.7 34 8.4 NNW 17 24 9 13 1011.4 - 0.0
01/12:00pm 21.8 18.1 6.5 37 7.8 NNW 15 22 8 12 1012.0 - 0.0
01/11:30am 21.6 19.1 8.1 42 7.1 NNW 11 17 6 9 1012.6 - 0.0
01/11:00am 20.1 16.9 6.8 42 6.8 N 13 20 7 11 1013.3 - 0.0
01/10:30am 19.6 14.7 7.0 44 6.4 WNW 22 30 12 16 1013.6 - 0.0
01/10:00am 18.5 15.2 8.2 51 5.3 NNW 15 24 8 13 1014.1 - 0.0
01/09:30am 16.8 13.5 6.3 50 5.2 NNW 13 19 7 10 1014.7 - 0.0
01/09:00am 15.7 12.4 6.2 53 4.6 NNW 13 20 7 11 1015.2 1015.1 0.0
01/08:30am 14.3 9.8 5.9 57 4.0 NNW 19 26 10 14 1015.3 - 0.0
01/08:00am 12.8 8.0 5.7 62 3.3 NW 20 28 11 15 1015.4 - 0.0
01/07:30am 12.8 7.3 5.7 62 3.3 NW 24 35 13 19 1015.2 - 0.0
01/07:00am 11.5 7.0 6.0 69 2.6 NW 19 28 10 15 1015.3 - 0.0
01/06:30am 10.3 6.1 5.7 73 2.1 NNW 17 20 9 11 1015.2 - 0.0
01/06:00am 10.2 5.4 5.8 74 2.0 NW 20 26 11 14 1014.9 1014.8 0.0
01/05:30am 9.9 5.7 5.7 75 1.9 NNW 17 20 9 11 1014.8 - 0.0
01/05:00am 10.3 5.6 5.9 74 2.0 NNW 20 26 11 14 1015.0 - 0.0
01/04:30am 10.2 6.1 6.0 75 2.0 NNW 17 20 9 11 1014.9 - 0.0
01/04:00am 10.4 6.3 6.0 74 2.0 NNW 17 20 9 11 1015.0 - 0.0
01/03:30am 10.1 5.6 6.1 76 1.9 NW 19 22 10 12 1015.1 - 0.0
01/03:00am 10.3 5.8 6.3 76 1.9 NW 19 20 10 11 1015.1 1015.0 0.0
01/02:30am 10.2 6.1 6.4 77 1.8 NW 17 20 9 11 1015.4 - 0.0
01/02:00am 10.1 6.1 6.6 79 1.6 NW 17 20 9 11 1015.7 - 0.0
01/01:30am 9.9 6.0 7.0 82 1.4 NW 17 19 9 10 1016.2 - 0.0
01/01:00am 9.7 6.4 8.0 89 0.8 NW 15 19 8 10 1016.5 - 0.0
01/12:30am 9.9 6.8 8.8 93 0.5 NW 15 17 8 9 1016.6 - 0.0
01/12:00am 10.2 7.6 9.4 95 0.4 NW 13 15 7 8 1016.7 1016.7 0.0
 
Date/Time
EST
Tmp

°C
App
Tmp
°C
Dew
Point
°C
Rel
Hum
%
Delta-T

°C
Wind Press
QNH
hPa
Press
MSL
hPa
Rain
since
9 am
mm
Dir
 
Spd
km/h
Gust
km/h
Spd
kts
Gust
kts
31/11:30pm 10.5 7.8 10.2 98 0.2 WNW 15 17 8 9 1017.1 - 0.0
31/11:00pm 10.4 8.4 10.2 99 0.1 WNW 11 13 6 7 1017.2 - 0.0
31/10:30pm 9.8 8.4 9.7 99 0.1 NW 7 9 4 5 1017.4 - 0.0
31/10:00pm 10.4 9.2 10.2 99 0.1 WNW 7 9 4 5 1017.7 - 0.0
31/09:30pm 10.2 8.9 10.0 99 0.1 W 7 11 4 6 1017.6 - 0.0
31/09:00pm 10.2 8.9 10.0 99 0.1 W 7 11 4 6 1017.7 1017.8 0.0
31/08:30pm 9.3 6.9 8.8 97 0.2 W 11 13 6 7 1017.7 - 0.0
31/08:00pm 9.7 9.5 8.9 95 0.4 CALM 0 6 0 3 1017.7 - 0.0
31/07:30pm 10.7 9.7 10.4 98 0.2 W 6 6 3 3 1017.8 - 0.0
31/07:00pm 10.5 9.3 9.4 93 0.6 WSW 6 7 3 4 1017.6 - 0.0
31/06:30pm 12.0 11.9 9.6 85 1.2 CALM 0 0 0 0 1017.4 - 0.0
31/06:00pm 14.2 13.1 10.8 80 1.8 E 7 11 4 6 1017.1 1017.2 0.0
31/05:30pm 15.2 13.4 10.8 75 2.3 ENE 11 15 6 8 1017.0 - 0.0
31/05:00pm 16.7 14.6 11.2 70 3.0 ENE 13 17 7 9 1016.8 - 0.0
31/04:30pm 17.7 14.7 10.8 64 3.7 NE 17 20 9 11 1016.5 - 0.0
31/04:00pm 18.6 15.9 11.7 64 3.8 SE 17 19 9 10 1016.4 - 0.0
31/03:30pm 19.2 16.9 11.7 62 4.2 SE 15 20 8 11 1016.6 - 0.0
31/03:00pm 19.3 17.0 10.6 57 4.7 ESE 13 19 7 10 1016.7 1016.8 0.0
31/02:30pm 19.4 16.2 11.2 59 4.5 SE 19 22 10 12 1017.0 - 0.0
31/02:00pm 20.4 19.5 9.3 49 5.9 SW 4 11 2 6 1017.2 - 0.0
31/01:30pm 20.8 17.1 4.4 34 8.0 NW 13 19 7 10 1017.4 - 0.0
31/01:00pm 20.3 18.1 7.7 44 6.5 N 9 17 5 9 1017.7 - 0.0
31/12:30pm 19.4 17.0 7.2 45 6.2 WNW 9 17 5 9 1018.3 - 0.0
31/12:00pm 19.2 17.1 9.9 55 5.0 WNW 11 17 6 9 1018.9 1019.0 0.0
31/11:30am 18.5 17.0 9.0 54 5.0 WNW 7 13 4 7 1019.4 - 0.0
31/11:00am 17.4 14.8 9.3 59 4.2 NNW 13 17 7 9 1019.9 - 0.0
31/10:30am 17.1 14.6 9.8 62 3.9 NNW 13 17 7 9 1020.3 - 0.0
31/10:00am 16.3 13.8 9.7 65 3.5 NW 13 17 7 9 1020.5 - 0.0
31/09:30am 15.4 12.9 9.7 69 3.0 WNW 13 19 7 10 1020.7 - 0.0
31/09:00am 14.2 11.2 9.2 72 2.6 WNW 15 20 8 11 1021.0 1021.1 0.0
31/08:30am 12.9 9.8 8.8 76 2.1 NW 15 19 8 10 1021.2 - 0.0
31/08:00am 11.9 8.7 8.6 80 1.6 WNW 15 20 8 11 1021.1 - 0.0
31/07:30am 10.9 8.1 8.5 85 1.2 WNW 13 17 7 9 1021.0 - 0.0
31/07:00am 9.8 7.3 8.2 90 0.8 WNW 11 15 6 8 1020.9 - 0.0
31/06:30am 9.2 6.3 8.1 93 0.5 WNW 13 17 7 9 1020.8 - 0.0
31/06:00am 9.5 6.6 8.3 92 0.6 WNW 13 15 7 8 1020.6 1020.7 0.0
31/05:30am 9.6 6.8 8.4 92 0.6 WNW 13 17 7 9 1020.5 - 0.0
31/05:00am 9.8 7.0 8.7 93 0.5 NW 13 15 7 8 1020.6 - 0.0

Latest Capital City Observations: Canberra | Sydney | Melbourne | Brisbane | Adelaide | Perth | Hobart | Darwin

Other Formats:

Comma delimited format used in spreadsheet applications
http://www.bom.gov.au/fwo/IDN60903/IDN60903.94750.axf

JavaScript Object Notation format (JSON) in row-major order
http://www.bom.gov.au/fwo/IDN60903/IDN60903.94750.json